createdAt,value
2017-10-21T00:01:32.439Z,4.90
2017-10-21T00:03:59.994Z,5.43
2017-10-21T00:06:27.532Z,5.13
2017-10-21T00:08:55.872Z,4.90
2017-10-21T00:11:23.423Z,5.20
2017-10-21T00:13:50.959Z,5.13
2017-10-21T00:16:18.516Z,4.93
2017-10-21T00:18:46.052Z,5.20
2017-10-21T00:21:14.379Z,4.57
2017-10-21T00:23:41.908Z,5.27
2017-10-21T00:26:09.461Z,5.33
2017-10-21T00:28:37.759Z,5.17
2017-10-21T00:31:05.362Z,4.57
2017-10-21T00:33:32.932Z,4.87
2017-10-21T00:36:00.536Z,4.07
2017-10-21T00:38:28.063Z,4.57
2017-10-21T00:40:56.382Z,5.00
2017-10-21T00:43:23.907Z,5.57
2017-10-21T00:45:52.227Z,4.17
2017-10-21T00:48:19.759Z,4.20
2017-10-21T00:50:47.382Z,4.20
2017-10-21T00:53:14.909Z,4.17
2017-10-21T00:55:42.460Z,4.83
2017-10-21T00:58:09.999Z,5.70
2017-10-21T01:00:37.546Z,5.40
2017-10-21T01:03:05.851Z,4.17
2017-10-21T01:05:33.408Z,4.53
2017-10-21T01:08:01.063Z,4.47
2017-10-21T01:10:28.620Z,4.27
2017-10-21T01:12:56.156Z,4.50
2017-10-21T01:15:24.479Z,4.97
2017-10-21T01:17:52.015Z,4.50
2017-10-21T01:20:19.573Z,4.90
2017-10-21T01:22:47.109Z,4.53
2017-10-21T01:25:14.669Z,4.07
2017-10-21T01:27:42.975Z,5.07
2017-10-21T01:30:10.532Z,5.03
2017-10-21T01:32:38.068Z,4.97
2017-10-21T01:35:06.391Z,4.60
2017-10-21T01:37:33.924Z,4.37
2017-10-21T01:40:02.247Z,4.87
2017-10-21T01:42:29.766Z,4.43
2017-10-21T01:44:57.321Z,3.77
2017-10-21T01:47:25.616Z,5.13
2017-10-21T01:49:53.174Z,5.17
2017-10-21T01:52:20.698Z,5.53
2017-10-21T01:54:48.251Z,5.60
2017-10-21T01:57:15.779Z,4.93
2017-10-21T01:59:43.332Z,5.67
2017-10-21T02:02:10.864Z,4.77
2017-10-21T02:04:38.423Z,6.80
2017-10-21T02:07:05.959Z,6.30
2017-10-21T02:09:34.285Z,5.27
2017-10-21T02:12:01.819Z,5.40
2017-10-21T02:14:29.375Z,4.70
2017-10-21T02:16:56.902Z,5.37
2017-10-21T02:19:24.428Z,5.00
2017-10-21T02:21:51.980Z,4.77
2017-10-21T02:24:19.511Z,4.90
2017-10-21T02:26:47.072Z,4.67
2017-10-21T02:29:14.611Z,4.80
2017-10-21T02:31:42.932Z,5.40
2017-10-21T02:34:10.475Z,5.90
2017-10-21T02:36:38.027Z,5.77
2017-10-21T02:39:05.575Z,5.20
2017-10-21T02:41:33.899Z,5.40
2017-10-21T02:44:01.424Z,4.93
2017-10-21T02:46:28.983Z,5.03
2017-10-21T02:48:57.280Z,4.50
2017-10-21T02:51:24.838Z,5.03
2017-10-21T02:53:52.366Z,5.10
2017-10-21T02:56:20.692Z,5.57
2017-10-21T02:58:48.223Z,5.77
2017-10-21T03:01:15.771Z,5.30
2017-10-21T03:03:44.064Z,6.40
2017-10-21T03:06:11.624Z,5.63
2017-10-21T03:08:39.155Z,5.57
2017-10-21T03:11:07.475Z,5.00
2017-10-21T03:13:35.011Z,4.83
2017-10-21T03:16:02.563Z,5.63
2017-10-21T03:18:30.860Z,5.63
2017-10-21T03:20:58.411Z,4.60
2017-10-21T03:23:25.948Z,6.70
2017-10-21T03:25:54.270Z,5.17
2017-10-21T03:28:21.799Z,6.00
2017-10-21T03:30:50.117Z,6.80
2017-10-21T03:33:17.653Z,6.90
2017-10-21T03:35:45.206Z,6.57
2017-10-21T03:38:12.735Z,6.90
2017-10-21T03:40:40.288Z,6.67
2017-10-21T03:43:07.815Z,6.30
2017-10-21T03:45:35.372Z,6.00
2017-10-21T03:48:02.900Z,5.50
2017-10-21T03:50:30.461Z,5.33
2017-10-21T03:52:57.992Z,6.53
2017-10-21T03:55:25.556Z,5.80
2017-10-21T03:57:53.083Z,6.77
2017-10-21T04:00:20.645Z,6.60
2017-10-21T04:02:48.175Z,5.90
2017-10-21T04:05:15.730Z,5.87
2017-10-21T04:07:43.257Z,6.97
2017-10-21T04:10:11.575Z,6.10
2017-10-21T04:12:39.101Z,6.70
2017-10-21T04:15:07.411Z,6.17
2017-10-21T04:17:34.939Z,6.20
2017-10-21T04:20:03.267Z,5.30
2017-10-21T04:22:30.804Z,6.10
2017-10-21T04:24:58.354Z,6.53
2017-10-21T04:27:25.880Z,6.60
2017-10-21T04:29:53.407Z,7.20
2017-10-21T04:32:21.725Z,6.80
2017-10-21T04:34:50.019Z,5.97
2017-10-21T04:37:18.344Z,6.63
2017-10-21T04:39:45.874Z,7.00
2017-10-21T04:42:13.431Z,6.53
2017-10-21T04:44:47.696Z,7.47
2017-10-21T04:47:15.255Z,6.87
2017-10-21T04:49:42.783Z,6.17
2017-10-21T04:52:10.335Z,7.10
2017-10-21T04:54:37.865Z,7.20
2017-10-21T04:57:06.180Z,9.67
2017-10-21T04:59:33.717Z,9.60
2017-10-21T05:02:01.279Z,8.43
2017-10-21T05:04:28.825Z,9.67
2017-10-21T05:06:57.147Z,10.50
2017-10-21T05:09:24.670Z,9.10
2017-10-21T05:11:52.227Z,9.60
2017-10-21T05:14:19.752Z,8.33
2017-10-21T05:16:47.310Z,8.40
2017-10-21T05:19:15.059Z,8.20
2017-10-21T05:21:43.424Z,7.93
2017-10-21T05:24:11.031Z,8.30
2017-10-21T05:26:39.363Z,10.27
2017-10-21T05:29:06.903Z,9.07
2017-10-21T05:31:34.470Z,8.00
2017-10-21T05:34:02.014Z,8.10
2017-10-21T05:36:30.437Z,8.50
2017-10-21T05:38:58.054Z,8.00
2017-10-21T05:41:25.606Z,6.80
2017-10-21T05:43:53.908Z,6.90
2017-10-21T05:46:21.468Z,6.30
2017-10-21T05:48:49.000Z,6.87
2017-10-21T05:51:17.567Z,6.40
2017-10-21T05:53:45.876Z,6.80
2017-10-21T05:56:13.488Z,6.60
2017-10-21T05:58:41.073Z,7.10
2017-10-21T06:01:10.011Z,5.90
2017-10-21T06:03:38.152Z,7.00
2017-10-21T06:06:06.009Z,6.50
2017-10-21T06:08:34.109Z,6.73
2017-10-21T06:11:01.715Z,6.20
2017-10-21T06:13:30.201Z,5.90
2017-10-21T06:15:58.746Z,5.60
2017-10-21T06:18:26.790Z,7.10
2017-10-21T06:20:54.404Z,6.20
2017-10-21T06:23:21.943Z,6.80
2017-10-21T06:25:49.623Z,6.80
2017-10-21T06:28:17.155Z,7.23
2017-10-21T06:30:44.720Z,7.13
2017-10-21T06:33:12.254Z,6.00
2017-10-21T06:35:39.819Z,6.30
2017-10-21T06:38:07.430Z,6.50
2017-10-21T06:40:34.997Z,5.60
2017-10-21T06:43:03.315Z,6.50
2017-10-21T06:45:30.855Z,5.97
2017-10-21T06:47:59.171Z,4.97
2017-10-21T06:50:26.704Z,5.80
2017-10-21T06:52:55.029Z,6.13
2017-10-21T06:55:22.575Z,6.67
2017-10-21T06:57:50.128Z,5.90
2017-10-21T07:00:17.660Z,6.70
2017-10-21T07:02:45.976Z,6.20
2017-10-21T07:05:13.507Z,6.20
2017-10-21T07:07:41.066Z,8.03
2017-10-21T07:10:08.600Z,7.93
2017-10-21T07:12:36.924Z,7.37
2017-10-21T07:15:04.454Z,5.63
2017-10-21T07:17:32.779Z,5.60
2017-10-21T07:20:00.311Z,6.10
2017-10-21T07:22:27.871Z,9.80
2017-10-21T07:24:55.413Z,10.20
2017-10-21T07:27:22.975Z,9.33
2017-10-21T07:29:50.514Z,7.60
2017-10-21T07:32:18.856Z,7.13
2017-10-21T07:34:46.387Z,6.30
2017-10-21T07:37:13.957Z,8.13
2017-10-21T07:39:41.492Z,9.50
2017-10-21T07:42:09.064Z,7.70
2017-10-21T07:44:36.596Z,8.90
2017-10-21T07:47:04.922Z,16.37
2017-10-21T07:49:32.458Z,15.23
2017-10-21T07:52:00.015Z,9.97
2017-10-21T07:54:27.551Z,7.87
2017-10-21T07:56:55.871Z,6.83
2017-10-21T07:59:23.407Z,6.93
2017-10-21T08:01:50.965Z,5.93
2017-10-21T08:04:18.503Z,5.90
2017-10-21T08:06:46.059Z,6.80
2017-10-21T08:09:14.360Z,7.70
2017-10-21T08:11:41.928Z,9.20
2017-10-21T08:14:09.459Z,6.97
2017-10-21T08:16:37.015Z,6.90
2017-10-21T08:19:04.547Z,8.37
2017-10-21T08:21:32.100Z,9.00
2017-10-21T08:23:59.647Z,8.60
2017-10-21T08:26:27.207Z,9.77
2017-10-21T08:28:54.746Z,10.37
2017-10-21T08:31:22.311Z,9.30
2017-10-21T08:33:49.841Z,8.80
2017-10-21T08:36:18.167Z,8.27
2017-10-21T08:38:45.706Z,10.20
2017-10-21T08:41:13.263Z,7.20
2017-10-21T08:43:40.799Z,6.37
2017-10-21T08:46:09.128Z,6.20
2017-10-21T08:48:36.659Z,5.80
2017-10-21T08:51:04.198Z,6.37
2017-10-21T08:53:32.536Z,6.10
2017-10-21T08:56:00.077Z,5.87
2017-10-21T08:58:27.634Z,5.73
2017-10-21T09:00:56.536Z,5.30
2017-10-21T09:03:24.102Z,6.10
2017-10-21T09:05:51.628Z,5.63
2017-10-21T09:08:19.184Z,4.80
2017-10-21T09:10:47.408Z,5.57
2017-10-21T09:13:15.019Z,4.90
2017-10-21T09:15:42.554Z,5.00
2017-10-21T09:18:10.099Z,5.30
2017-10-21T09:20:37.626Z,5.07
2017-10-21T09:23:05.326Z,5.50
2017-10-21T09:25:33.648Z,5.70
2017-10-21T09:28:01.203Z,5.10
2017-10-21T09:30:28.735Z,5.60
2017-10-21T09:32:57.071Z,5.30
2017-10-21T09:35:24.627Z,5.23
2017-10-21T09:37:52.360Z,6.10
2017-10-21T09:40:19.891Z,5.97
2017-10-21T09:42:47.448Z,5.20
2017-10-21T09:45:15.120Z,5.90
2017-10-21T09:47:43.441Z,5.77
2017-10-21T09:50:10.969Z,5.60
2017-10-21T09:52:39.288Z,5.33
2017-10-21T09:55:06.815Z,5.23
2017-10-21T09:57:34.376Z,5.47
2017-10-21T10:00:01.903Z,5.40
2017-10-21T10:02:29.458Z,5.10
2017-10-21T10:04:56.983Z,5.23
2017-10-21T10:07:24.533Z,4.17
2017-10-21T10:09:52.052Z,5.00
2017-10-21T10:12:20.371Z,5.23
2017-10-21T10:14:47.899Z,4.50
2017-10-21T10:17:16.213Z,4.70
2017-10-21T10:19:43.739Z,4.33
2017-10-21T10:22:11.921Z,4.83
2017-10-21T10:24:40.207Z,5.30
2017-10-21T10:27:07.788Z,5.43
2017-10-21T10:29:35.319Z,5.23
2017-10-21T10:32:02.871Z,5.63
2017-10-21T10:34:30.407Z,5.80
2017-10-21T10:36:57.971Z,5.13
2017-10-21T10:39:25.616Z,6.03
2017-10-21T10:41:53.274Z,5.50
2017-10-21T10:44:20.974Z,5.40
2017-10-21T10:46:48.575Z,5.03
2017-10-21T10:49:16.110Z,6.10
2017-10-21T10:51:43.689Z,6.10
2017-10-21T10:54:11.210Z,6.20
2017-10-21T10:56:39.536Z,5.67
2017-10-21T10:59:07.063Z,5.93
2017-10-21T11:01:34.602Z,6.37
2017-10-21T11:04:02.928Z,6.60
2017-10-21T11:06:30.460Z,6.43
2017-10-21T11:08:58.015Z,5.90
2017-10-21T11:11:25.546Z,7.30
2017-10-21T11:13:53.104Z,5.20
2017-10-21T11:16:20.632Z,5.20
2017-10-21T11:18:48.191Z,6.00
2017-10-21T11:21:15.715Z,4.50
2017-10-21T11:23:43.275Z,6.07
2017-10-21T11:26:10.812Z,6.03
2017-10-21T11:28:39.220Z,4.80
2017-10-21T11:31:06.774Z,6.03
2017-10-21T11:33:34.333Z,5.13
2017-10-21T11:36:01.868Z,4.93
2017-10-21T11:38:30.421Z,6.20
2017-10-21T11:40:57.966Z,6.70
2017-10-21T11:43:25.588Z,5.20
2017-10-21T11:45:53.131Z,6.77
2017-10-21T11:48:21.463Z,5.20
2017-10-21T11:50:49.005Z,6.20
2017-10-21T11:53:16.566Z,6.50
2017-10-21T11:55:44.103Z,5.23
2017-10-21T11:58:12.425Z,6.67
2017-10-21T12:00:39.948Z,6.70
2017-10-21T12:03:07.514Z,6.17
2017-10-21T12:05:35.056Z,5.73
2017-10-21T12:08:03.387Z,6.97
2017-10-21T12:10:30.915Z,5.70
2017-10-21T12:12:58.474Z,5.93
2017-10-21T12:15:26.007Z,7.27
2017-10-21T12:17:54.345Z,6.13
2017-10-21T12:20:21.888Z,6.20
2017-10-21T12:22:49.451Z,7.00
2017-10-21T12:25:16.979Z,6.57
2017-10-21T12:27:44.531Z,6.50
2017-10-21T12:30:12.821Z,6.20
2017-10-21T12:32:40.391Z,5.10
2017-10-21T12:35:07.920Z,6.47
2017-10-21T12:37:36.247Z,7.20
2017-10-21T12:40:03.776Z,5.07
2017-10-21T12:42:31.335Z,6.37
2017-10-21T12:44:58.871Z,5.60
2017-10-21T12:47:27.199Z,5.07
2017-10-21T12:49:54.727Z,6.50
2017-10-21T12:52:23.039Z,5.10
2017-10-21T12:54:50.567Z,4.77
2017-10-21T12:57:18.883Z,5.57
2017-10-21T12:59:46.415Z,4.83
2017-10-21T13:02:13.967Z,5.03
2017-10-21T13:04:41.495Z,6.23
2017-10-21T13:07:09.131Z,5.60
2017-10-21T13:09:37.434Z,5.07
2017-10-21T13:12:04.963Z,6.20
2017-10-21T13:14:32.511Z,5.57
2017-10-21T13:17:00.043Z,5.27
2017-10-21T13:19:27.607Z,5.67
2017-10-21T13:21:55.131Z,5.10
2017-10-21T13:24:22.691Z,6.90
2017-10-21T13:26:50.219Z,9.93
2017-10-21T13:29:17.771Z,9.83
2017-10-21T13:31:45.309Z,12.00
2017-10-21T13:34:13.295Z,12.57
2017-10-21T13:36:40.818Z,9.40
2017-10-21T13:39:09.139Z,10.67
2017-10-21T13:41:36.675Z,10.27
2017-10-21T13:44:04.227Z,7.13
2017-10-21T13:46:31.771Z,7.27
2017-10-21T13:49:00.087Z,5.57
2017-10-21T13:51:27.668Z,6.10
2017-10-21T13:53:55.228Z,7.27
2017-10-21T13:56:22.765Z,6.27
2017-10-21T13:58:50.328Z,4.57
2017-10-21T14:01:17.864Z,6.57
2017-10-21T14:03:45.431Z,4.80
2017-10-21T14:06:12.959Z,5.23
2017-10-21T14:08:41.295Z,5.77
2017-10-21T14:11:08.823Z,4.63
2017-10-21T14:13:36.375Z,4.10
2017-10-21T14:16:03.920Z,5.73
2017-10-21T14:18:32.266Z,4.30
2017-10-21T14:20:59.827Z,4.10
2017-10-21T14:23:27.395Z,4.20
2017-10-21T14:25:54.935Z,4.30
2017-10-21T14:28:22.496Z,4.30
2017-10-21T14:30:50.027Z,4.30
2017-10-21T14:33:17.592Z,4.60
2017-10-21T14:35:45.128Z,3.60
2017-10-21T14:38:12.691Z,4.73
2017-10-21T14:40:40.227Z,4.60
2017-10-21T14:43:08.571Z,3.97
2017-10-21T14:45:36.103Z,3.70
2017-10-21T14:48:03.631Z,3.50
2017-10-21T14:50:31.958Z,3.37
2017-10-21T14:52:59.487Z,3.57
2017-10-21T14:55:27.036Z,3.57
2017-10-21T14:57:54.584Z,3.40
2017-10-21T15:00:22.905Z,3.33
2017-10-21T15:02:50.433Z,3.90
2017-10-21T15:05:18.761Z,3.00
2017-10-21T15:07:46.291Z,3.53
2017-10-21T15:10:13.852Z,3.87
2017-10-21T15:12:41.395Z,3.03
2017-10-21T15:15:08.954Z,2.80
2017-10-21T15:17:37.243Z,3.60
2017-10-21T15:20:04.799Z,3.30
2017-10-21T15:22:32.336Z,3.07
2017-10-21T15:25:00.844Z,3.20
2017-10-21T15:27:28.495Z,3.40
2017-10-21T15:29:56.058Z,4.03
2017-10-21T15:32:23.600Z,2.83
2017-10-21T15:34:51.923Z,3.00
2017-10-21T15:37:19.459Z,4.50
2017-10-21T15:39:47.014Z,3.27
2017-10-21T15:42:15.307Z,3.37
2017-10-21T15:44:42.874Z,3.40
2017-10-21T15:47:10.407Z,3.10
2017-10-21T15:49:37.987Z,3.50
2017-10-21T15:52:05.519Z,2.63
2017-10-21T15:54:34.238Z,3.70
2017-10-21T15:57:01.787Z,3.70
2017-10-21T15:59:29.407Z,3.50
2017-10-21T16:01:56.987Z,3.00
2017-10-21T16:04:24.555Z,3.53
2017-10-21T16:06:52.862Z,3.60
2017-10-21T16:09:20.476Z,3.30
2017-10-21T16:11:48.803Z,3.00
2017-10-21T16:14:16.776Z,3.20
2017-10-21T16:16:44.365Z,3.23
2017-10-21T16:19:11.933Z,3.10
2017-10-21T16:21:39.506Z,3.70
2017-10-21T16:24:07.842Z,3.33
2017-10-21T16:29:09.279Z,3.20
2017-10-21T16:31:36.814Z,2.73
2017-10-21T16:34:05.136Z,3.33
2017-10-21T16:36:32.671Z,2.93
2017-10-21T16:39:00.259Z,3.30
2017-10-21T16:41:27.831Z,3.47
2017-10-21T16:43:55.394Z,2.80
2017-10-21T16:46:22.931Z,3.70
2017-10-21T16:48:50.492Z,3.60
2017-10-21T16:51:18.023Z,3.50
2017-10-21T16:53:46.346Z,3.03
2017-10-21T16:56:13.884Z,3.00
2017-10-21T16:58:41.439Z,3.60
2017-10-21T17:01:08.979Z,3.20
2017-10-21T17:03:37.302Z,5.17
2017-10-21T17:06:04.855Z,4.40
2017-10-21T17:08:32.401Z,3.30
2017-10-21T17:10:59.969Z,3.23
2017-10-21T17:13:27.504Z,4.63
2017-10-21T17:15:55.066Z,3.70
2017-10-21T17:18:22.613Z,4.37
2017-10-21T17:20:50.943Z,3.67
2017-10-21T17:23:18.480Z,3.13
2017-10-21T17:25:46.035Z,3.60
2017-10-21T17:28:13.574Z,3.50
2017-10-21T17:30:41.894Z,3.57
2017-10-21T17:33:09.428Z,3.90
2017-10-21T17:35:36.988Z,3.77
2017-10-21T17:38:04.519Z,4.13
2017-10-21T17:40:32.846Z,3.87
2017-10-21T17:43:00.385Z,3.80
2017-10-21T17:45:27.946Z,3.43
2017-10-21T17:47:55.515Z,3.30
2017-10-21T17:50:23.127Z,3.57
2017-10-21T17:52:50.654Z,3.80
2017-10-21T17:55:18.203Z,3.93
2017-10-21T17:57:45.731Z,5.03
2017-10-21T18:00:13.317Z,3.60
2017-10-21T18:02:41.721Z,3.37
2017-10-21T18:05:09.308Z,7.83
2017-10-21T18:07:37.619Z,3.03
2017-10-21T18:10:05.217Z,4.70
2017-10-21T18:12:32.815Z,3.23
2017-10-21T18:15:01.163Z,3.87
2017-10-21T18:17:28.718Z,4.27
2017-10-21T18:19:56.302Z,3.53
2017-10-21T18:22:23.862Z,3.87
2017-10-21T18:24:51.435Z,4.87
2017-10-21T18:27:19.742Z,2.90
2017-10-21T18:29:47.316Z,4.30
2017-10-21T18:32:14.855Z,3.10
2017-10-21T18:34:42.490Z,3.07
2017-10-21T18:37:10.793Z,5.47
2017-10-21T18:39:38.373Z,2.80
2017-10-21T18:42:05.907Z,2.50
2017-10-21T18:44:33.478Z,4.03
2017-10-21T18:47:01.026Z,3.13
2017-10-21T18:49:28.587Z,3.10
2017-10-21T18:51:56.120Z,4.17
2017-10-21T18:54:23.682Z,2.90
2017-10-21T18:56:52.011Z,2.87
2017-10-21T18:59:19.712Z,4.23
2017-10-21T19:01:47.339Z,3.20
2017-10-21T19:04:14.895Z,4.10
2017-10-21T19:06:42.471Z,4.90
2017-10-21T19:09:10.450Z,3.20
2017-10-21T19:11:38.830Z,3.60
2017-10-21T19:14:06.364Z,4.70
2017-10-21T19:16:33.941Z,3.17
2017-10-21T19:19:01.483Z,3.90
2017-10-21T19:21:29.071Z,3.77
2017-10-21T19:23:56.612Z,3.00
2017-10-21T19:26:24.928Z,4.10
2017-10-21T19:28:53.936Z,3.80
2017-10-21T19:31:21.650Z,2.70
2017-10-21T19:33:49.212Z,4.33
2017-10-21T19:36:16.809Z,3.40
2017-10-21T19:38:45.157Z,2.40
2017-10-21T19:41:12.758Z,4.47
2017-10-21T19:43:41.075Z,3.40
2017-10-21T19:46:08.681Z,2.80
2017-10-21T19:48:37.007Z,4.03
2017-10-21T19:51:04.579Z,3.73
2017-10-21T19:53:32.356Z,3.83
2017-10-21T19:55:59.987Z,5.27
2017-10-21T19:58:27.769Z,3.13
2017-10-21T20:00:55.351Z,3.30
2017-10-21T20:03:22.942Z,4.63
2017-10-21T20:05:51.289Z,4.97
2017-10-21T20:08:18.872Z,5.20
2017-10-21T20:10:46.903Z,5.43
2017-10-21T20:13:14.479Z,4.13
2017-10-21T20:15:42.045Z,5.40
2017-10-21T20:18:09.592Z,4.90
2017-10-21T20:20:37.184Z,3.30
2017-10-21T20:23:05.512Z,4.63
2017-10-21T20:25:33.095Z,3.90
2017-10-21T20:28:00.662Z,3.47
2017-10-21T20:30:28.239Z,4.80
2017-10-21T20:32:55.846Z,4.07
2017-10-21T20:35:23.415Z,4.40
2017-10-21T20:37:51.148Z,5.03
2017-10-21T20:40:18.715Z,3.60
2017-10-21T20:42:46.349Z,4.20
2017-10-21T20:45:13.915Z,5.80
2017-10-21T20:47:42.219Z,3.97
2017-10-21T20:50:09.836Z,3.67
2017-10-21T20:52:37.371Z,4.07
2017-10-21T20:55:05.024Z,4.20
2017-10-21T20:57:32.560Z,3.63
2017-10-21T21:00:00.115Z,4.40
2017-10-21T21:02:27.647Z,3.70
2017-10-21T21:04:55.213Z,4.03
2017-10-21T21:07:23.564Z,5.23
2017-10-21T21:09:51.120Z,3.47
2017-10-21T21:12:18.657Z,4.30
2017-10-21T21:14:46.183Z,3.70
2017-10-21T21:17:14.510Z,3.63
2017-10-21T21:19:42.047Z,5.00
2017-10-21T21:22:09.595Z,4.70
2017-10-21T21:24:37.136Z,4.20
2017-10-21T21:27:05.463Z,5.23
2017-10-21T21:29:32.999Z,3.60
2017-10-21T21:32:00.556Z,3.67
2017-10-21T21:34:28.098Z,4.07
2017-10-21T21:36:56.416Z,4.70
2017-10-21T21:39:23.946Z,4.50
2017-10-21T21:41:51.507Z,4.10
2017-10-21T21:44:19.040Z,4.30
2017-10-21T21:46:46.594Z,4.30
2017-10-21T21:49:14.128Z,6.33
2017-10-21T21:51:42.464Z,4.57
2017-10-21T21:54:10.001Z,3.00
2017-10-21T21:56:38.326Z,3.80
2017-10-21T21:59:05.858Z,3.40
2017-10-21T22:01:33.409Z,2.80
2017-10-21T22:04:01.704Z,3.80
2017-10-21T22:06:29.259Z,4.80
2017-10-21T22:08:56.789Z,4.57
2017-10-21T22:11:24.352Z,5.90
2017-10-21T22:13:52.658Z,6.13
2017-10-21T22:16:20.224Z,8.33
2017-10-21T22:18:47.770Z,5.27
2017-10-21T22:21:15.320Z,5.23
2017-10-21T22:23:43.615Z,5.90
2017-10-21T22:26:11.181Z,4.50
2017-10-21T22:28:38.718Z,3.43
2017-10-21T22:52:08.812Z,5.30
2017-10-21T22:54:36.576Z,5.73
2017-10-21T22:57:04.133Z,4.80
2017-10-21T22:59:31.651Z,5.67
2017-10-21T23:01:59.214Z,4.50
2017-10-21T23:04:27.556Z,5.70
2017-10-21T23:06:55.115Z,4.80
2017-10-21T23:09:22.661Z,4.13
2017-10-21T23:11:50.250Z,5.60
2017-10-21T23:14:17.791Z,4.10
2017-10-21T23:16:45.343Z,4.07
2017-10-21T23:19:12.882Z,3.93
2017-10-21T23:21:40.497Z,3.40
2017-10-21T23:24:08.031Z,5.17
2017-10-21T23:26:36.601Z,4.00
2017-10-21T23:29:04.135Z,4.00
2017-10-21T23:31:31.687Z,3.13
2017-10-21T23:33:59.233Z,4.00
2017-10-21T23:36:27.556Z,2.50
2017-10-21T23:38:55.087Z,3.50
2017-10-21T23:41:23.398Z,2.80
2017-10-21T23:43:50.928Z,2.80
2017-10-21T23:46:18.494Z,3.00
2017-10-21T23:48:46.023Z,2.37
2017-10-21T23:51:13.571Z,3.10
2017-10-21T23:53:41.098Z,3.10
2017-10-21T23:56:08.655Z,2.53
2017-10-21T23:58:36.184Z,2.60
